Terminal Aerodrome Forecast
Issued by NWS

Home | Current Version | Previous Version | Text Only | Print | Product List | Glossary On
Versions: 1 2 3 4 5 6 7 8 9 10 11 12 13 14 15 16 17
000
FTUS45 KTFX 241700
TAFGTF
TAF
KGTF 241720Z 2418/2518 22011KT P6SM BKN070 OVC090
     FM241900 23015G23KT P6SM VCSH BKN050 OVC080
     FM250100 24015KT P6SM BKN090
     FM250600 22011KT P6SM SCT200=

USA.gov is the U.S. government's official web portal to all federal, state and local government web resources and services.